Gravois Mills, Missouri
Current Conditions -  °F | °C
As of 11:35 AM on Thursday 23 Oct 2014 (Local Time) from KAIZ Reporting Station
Overcast Overcast  
Wind Chill: 57°   Ceiling: 10000
Heat Index: 57°   Visibility: 10mi
Dew Point: 46°   Wind: 9mph
Humidity: 67%   Direction: 180°S
Pressure: 30.17"   Gusts: NA
Location:  38.31°N, 92.83°W
Report Text: KAIZ 231635Z AUTO 18008KT 10SM OVC100 14/08 A3017 RMK AO1
Loading
Personal Weather Stations






























Interactive Weather Map
Tropical Storm Tracking
New forecast layout! Learn more

10-Day Weather Forecast

Advertisements
Track Severe Weather on mobile